Terminal Aerodrome Forecast
Issued by NWS

Home | Current Version | Previous Version | Graphics & Text | Print | Product List | Glossary On
Versions: 1 2 3 4 5 6 7 8 9 10 11 12 13 14 15 16 17 18
087
FTUS43 KABR 270532
TAFPIR
TAF
KPIR 270532Z 2706/2806 27008KT P6SM VCSH OVC100
      TEMPO 2708/2712 -SHRA BKN070 OVC090
     FM271500 26006KT P6SM BKN100
     FM271800 27008KT P6SM SCT150=

USA.gov is the U.S. government's official web portal to all federal, state and local government web resources and services.